createdAt,value
2023-04-30T00:01:21.484Z,2.60
2023-04-30T00:03:49.653Z,3.00
2023-04-30T00:06:20.862Z,3.03
2023-04-30T00:08:48.906Z,2.70
2023-04-30T00:11:16.985Z,2.93
2023-04-30T00:13:45.093Z,3.23
2023-04-30T00:16:14.657Z,3.00
2023-04-30T00:18:42.771Z,3.23
2023-04-30T00:21:10.808Z,2.90
2023-04-30T00:23:46.649Z,3.50
2023-04-30T00:26:15.594Z,3.20
2023-04-30T00:28:43.720Z,3.13
2023-04-30T00:31:11.826Z,2.83
2023-04-30T00:33:41.326Z,3.10
2023-04-30T00:36:09.458Z,3.10
2023-04-30T00:38:37.554Z,2.70
2023-04-30T00:41:05.769Z,2.63
2023-04-30T00:43:34.405Z,3.30
2023-04-30T00:46:03.948Z,2.70
2023-04-30T00:48:32.096Z,2.40
2023-04-30T00:51:01.751Z,2.83
2023-04-30T00:53:29.833Z,2.97
2023-04-30T00:55:58.175Z,2.70
2023-04-30T00:58:26.353Z,3.20
2023-04-30T01:00:54.585Z,2.70
2023-04-30T01:03:23.121Z,2.60
2023-04-30T01:05:51.247Z,3.00
2023-04-30T01:08:21.082Z,2.80
2023-04-30T01:10:53.374Z,2.80
2023-04-30T01:13:24.711Z,2.77
2023-04-30T01:16:02.069Z,2.77
2023-04-30T01:18:32.458Z,3.10
2023-04-30T01:21:03.323Z,2.53
2023-04-30T01:23:42.590Z,2.40
2023-04-30T01:26:14.783Z,3.10
2023-04-30T01:28:44.872Z,2.30
2023-04-30T01:31:14.437Z,2.70
2023-04-30T01:33:42.766Z,2.83
2023-04-30T01:36:23.999Z,3.07
2023-04-30T01:39:13.505Z,2.73
2023-04-30T01:41:45.084Z,2.37
2023-04-30T01:44:30.655Z,2.80
2023-04-30T01:47:03.170Z,2.40
2023-04-30T01:49:33.911Z,2.43
2023-04-30T01:52:08.821Z,2.63
2023-04-30T01:54:39.943Z,2.67
2023-04-30T01:57:08.611Z,2.90
2023-04-30T01:59:39.598Z,2.20
2023-04-30T02:02:08.158Z,2.63
2023-04-30T02:04:36.351Z,2.40
2023-04-30T02:07:04.476Z,2.83
2023-04-30T02:09:32.543Z,2.67
2023-04-30T02:12:00.732Z,2.70
2023-04-30T02:14:28.834Z,2.40
2023-04-30T02:16:58.938Z,2.60
2023-04-30T02:19:26.991Z,2.83
2023-04-30T02:21:55.105Z,2.80
2023-04-30T02:24:23.204Z,2.67
2023-04-30T02:26:51.309Z,2.80
2023-04-30T02:29:19.398Z,2.30
2023-04-30T02:31:47.537Z,2.90
2023-04-30T02:34:17.130Z,2.73
2023-04-30T02:36:45.193Z,2.70
2023-04-30T02:39:13.309Z,2.70
2023-04-30T02:41:41.416Z,2.77
2023-04-30T02:44:09.455Z,2.93
2023-04-30T02:46:37.527Z,2.93
2023-04-30T02:49:05.595Z,2.80
2023-04-30T02:51:35.107Z,2.80
2023-04-30T02:54:03.264Z,2.87
2023-04-30T02:56:31.324Z,2.93
2023-04-30T02:58:59.374Z,2.73
2023-04-30T03:01:27.616Z,3.00
2023-04-30T03:03:55.846Z,2.50
2023-04-30T03:06:23.997Z,2.50
2023-04-30T03:08:59.375Z,3.17
2023-04-30T03:11:27.677Z,2.70
2023-04-30T03:13:55.759Z,2.97
2023-04-30T03:16:23.882Z,2.70
2023-04-30T03:18:51.983Z,2.90
2023-04-30T03:21:20.101Z,2.50
2023-04-30T03:23:48.165Z,2.60
2023-04-30T03:26:17.636Z,3.00
2023-04-30T03:28:49.447Z,2.53
2023-04-30T03:31:18.041Z,3.13
2023-04-30T03:33:46.126Z,2.93
2023-04-30T03:36:14.266Z,3.10
2023-04-30T03:38:42.907Z,2.80
2023-04-30T03:41:11.067Z,2.83
2023-04-30T03:43:40.514Z,2.73
2023-04-30T03:46:08.673Z,2.60
2023-04-30T03:48:36.773Z,2.43
2023-04-30T03:51:04.963Z,2.67
2023-04-30T03:53:33.061Z,2.77
2023-04-30T03:56:01.173Z,2.83
2023-04-30T03:58:29.240Z,2.57
2023-04-30T04:00:58.676Z,2.60
2023-04-30T04:03:26.751Z,2.80
2023-04-30T04:05:54.879Z,2.77
2023-04-30T04:08:22.987Z,2.77
2023-04-30T04:10:51.094Z,2.90
2023-04-30T04:13:19.256Z,2.60
2023-04-30T04:15:47.405Z,2.27
2023-04-30T04:18:19.682Z,2.03
2023-04-30T04:20:47.758Z,1.90
2023-04-30T04:23:15.881Z,1.80
2023-04-30T04:25:44.368Z,2.00
2023-04-30T04:28:12.464Z,2.00
2023-04-30T04:30:40.989Z,1.80
2023-04-30T04:33:09.290Z,1.93
2023-04-30T04:35:38.759Z,1.80
2023-04-30T04:38:06.874Z,2.00
2023-04-30T04:40:35.510Z,1.80
2023-04-30T04:43:03.577Z,1.80
2023-04-30T04:45:32.576Z,1.40
2023-04-30T04:48:00.810Z,1.90
2023-04-30T04:50:29.244Z,1.50
2023-04-30T04:52:58.719Z,1.50
2023-04-30T04:55:27.158Z,1.63
2023-04-30T04:57:55.224Z,1.70
2023-04-30T05:00:23.270Z,1.50
2023-04-30T05:02:51.478Z,1.90
2023-04-30T05:05:19.671Z,1.60
2023-04-30T05:07:56.083Z,1.43
2023-04-30T05:10:25.624Z,1.60
2023-04-30T05:12:53.749Z,1.50
2023-04-30T05:15:21.862Z,1.50
2023-04-30T05:17:49.924Z,1.70
2023-04-30T05:20:18.222Z,1.40
2023-04-30T05:22:46.284Z,1.27
2023-04-30T05:25:14.342Z,1.10
2023-04-30T05:27:43.852Z,1.37
2023-04-30T05:30:12.932Z,1.37
2023-04-30T05:32:41.025Z,1.30
2023-04-30T05:35:09.857Z,1.80
2023-04-30T05:37:37.906Z,1.60
2023-04-30T05:40:07.655Z,1.77
2023-04-30T05:42:38.372Z,1.77
2023-04-30T05:45:09.668Z,1.90
2023-04-30T05:47:37.824Z,2.07
2023-04-30T05:50:06.940Z,1.80
2023-04-30T05:52:34.985Z,1.90
2023-04-30T05:55:03.039Z,1.67
2023-04-30T05:57:42.789Z,2.47
2023-04-30T06:00:13.819Z,2.10
2023-04-30T06:02:42.044Z,2.00
2023-04-30T06:05:10.502Z,1.63
2023-04-30T06:07:38.875Z,1.93
2023-04-30T06:10:09.399Z,1.87
2023-04-30T06:12:37.464Z,2.10
2023-04-30T06:15:06.478Z,2.13
2023-04-30T06:17:36.066Z,2.17
2023-04-30T06:20:07.174Z,1.67
2023-04-30T06:22:35.320Z,2.23
2023-04-30T06:25:03.646Z,2.17
2023-04-30T06:27:32.458Z,1.60
2023-04-30T06:30:07.800Z,1.50
2023-04-30T06:32:37.240Z,1.77
2023-04-30T06:35:06.548Z,2.10
2023-04-30T06:37:37.874Z,2.00
2023-04-30T06:40:07.403Z,1.50
2023-04-30T06:42:36.124Z,1.70
2023-04-30T06:45:04.242Z,1.83
2023-04-30T06:47:34.626Z,1.77
2023-04-30T06:50:04.375Z,1.63
2023-04-30T06:52:32.456Z,1.70
2023-04-30T06:55:01.003Z,1.90
2023-04-30T06:57:29.085Z,1.67
2023-04-30T06:59:57.319Z,1.50
2023-04-30T07:02:37.578Z,1.70
2023-04-30T07:05:07.608Z,1.40
2023-04-30T07:07:35.770Z,1.63
2023-04-30T07:10:04.175Z,1.30
2023-04-30T07:12:32.427Z,1.70
2023-04-30T07:15:00.644Z,1.80
2023-04-30T07:17:29.406Z,1.90
2023-04-30T07:19:57.643Z,1.67
2023-04-30T07:22:28.134Z,1.77
2023-04-30T07:24:56.711Z,1.60
2023-04-30T07:27:24.853Z,1.60
2023-04-30T07:29:53.269Z,1.47
2023-04-30T07:32:21.462Z,1.50
2023-04-30T07:34:49.611Z,1.47
2023-04-30T07:37:17.709Z,1.30
2023-04-30T07:39:47.214Z,1.43
2023-04-30T07:42:15.306Z,1.67
2023-04-30T07:44:43.367Z,1.43
2023-04-30T07:47:11.471Z,1.50
2023-04-30T07:49:39.582Z,1.60
2023-04-30T07:52:11.010Z,1.77
2023-04-30T07:54:40.134Z,1.43
2023-04-30T07:57:09.587Z,1.30
2023-04-30T07:59:37.642Z,1.30
2023-04-30T08:02:05.707Z,1.70
2023-04-30T08:04:34.031Z,1.70
2023-04-30T08:07:04.516Z,1.30
2023-04-30T08:09:35.605Z,1.67
2023-04-30T08:12:05.048Z,1.73
2023-04-30T08:14:34.575Z,1.60
2023-04-30T08:17:03.391Z,1.63
2023-04-30T08:19:31.641Z,1.50
2023-04-30T08:21:59.980Z,1.90
2023-04-30T08:24:28.149Z,1.83
2023-04-30T08:26:56.270Z,2.00
2023-04-30T08:29:24.415Z,2.00
2023-04-30T08:31:53.951Z,1.80
2023-04-30T08:34:22.089Z,1.60
2023-04-30T08:36:50.368Z,1.70
2023-04-30T08:39:18.624Z,2.00
2023-04-30T08:41:47.845Z,1.80
2023-04-30T08:44:15.907Z,2.10
2023-04-30T08:46:44.635Z,2.10
2023-04-30T08:49:14.152Z,1.90
2023-04-30T08:51:42.217Z,1.93
2023-04-30T08:54:11.404Z,1.80
2023-04-30T08:56:39.606Z,2.00
2023-04-30T08:59:08.131Z,1.60
2023-04-30T09:01:36.326Z,1.50
2023-04-30T09:04:05.204Z,1.73
2023-04-30T09:06:34.755Z,2.20
2023-04-30T09:09:10.804Z,1.77
2023-04-30T09:11:38.879Z,1.67
2023-04-30T09:14:07.422Z,2.00
2023-04-30T09:16:47.158Z,2.20
2023-04-30T09:19:25.430Z,2.17
2023-04-30T09:21:55.284Z,1.90
2023-04-30T09:24:23.423Z,1.93
2023-04-30T09:26:52.347Z,1.77
2023-04-30T09:29:20.482Z,1.90
2023-04-30T09:31:48.777Z,1.97
2023-04-30T09:34:16.952Z,2.03
2023-04-30T09:36:55.954Z,2.10
2023-04-30T09:39:24.164Z,1.80
2023-04-30T09:42:10.244Z,1.87
2023-04-30T09:44:38.983Z,1.47
2023-04-30T09:47:11.738Z,1.53
2023-04-30T09:49:45.869Z,2.10
2023-04-30T09:52:16.868Z,1.87
2023-04-30T09:54:45.393Z,1.80
2023-04-30T09:57:14.680Z,1.43
2023-04-30T09:59:45.042Z,1.90
2023-04-30T10:02:14.568Z,2.17
2023-04-30T10:04:44.652Z,1.77
2023-04-30T10:07:21.579Z,1.80
2023-04-30T10:09:51.623Z,1.90
2023-04-30T10:12:23.469Z,1.70
2023-04-30T10:14:53.673Z,1.63
2023-04-30T10:17:21.789Z,1.70
2023-04-30T10:19:51.818Z,1.80
2023-04-30T10:22:21.282Z,1.50
2023-04-30T10:24:49.667Z,2.00
2023-04-30T10:27:17.770Z,1.73
2023-04-30T10:29:50.094Z,1.73
2023-04-30T10:32:18.319Z,1.50
2023-04-30T10:34:51.606Z,1.83
2023-04-30T10:37:25.441Z,1.63
2023-04-30T10:39:53.814Z,1.60
2023-04-30T10:42:22.087Z,1.63
2023-04-30T10:44:50.309Z,1.60
2023-04-30T10:47:19.299Z,1.73
2023-04-30T10:49:49.212Z,1.30
2023-04-30T10:52:17.580Z,1.70
2023-04-30T10:54:51.813Z,1.30
2023-04-30T10:57:20.283Z,1.60
2023-04-30T10:59:53.681Z,1.80
2023-04-30T11:02:21.940Z,1.37
2023-04-30T11:05:11.717Z,1.80
2023-04-30T11:07:48.611Z,1.70
2023-04-30T11:10:18.040Z,1.43
2023-04-30T11:12:49.215Z,1.53
2023-04-30T11:15:19.956Z,1.57
2023-04-30T11:17:49.113Z,1.83
2023-04-30T11:20:20.742Z,1.33
2023-04-30T11:22:48.878Z,1.73
2023-04-30T11:25:22.500Z,1.70
2023-04-30T11:27:50.579Z,2.07
2023-04-30T11:30:19.197Z,1.70
2023-04-30T11:32:48.184Z,1.77
2023-04-30T11:35:18.934Z,1.40
2023-04-30T11:37:47.167Z,1.60
2023-04-30T11:40:16.060Z,1.50
2023-04-30T11:42:46.720Z,1.63
2023-04-30T11:45:25.986Z,1.30
2023-04-30T11:47:55.324Z,1.97
2023-04-30T11:50:28.962Z,1.70
2023-04-30T11:52:58.086Z,1.70
2023-04-30T11:55:26.747Z,1.73
2023-04-30T11:57:56.818Z,2.07
2023-04-30T12:00:28.029Z,1.77
2023-04-30T12:02:56.453Z,1.93
2023-04-30T12:05:25.699Z,1.60
2023-04-30T12:07:56.263Z,1.60
2023-04-30T12:10:24.816Z,1.63
2023-04-30T12:12:54.802Z,1.50
2023-04-30T12:15:27.138Z,1.43
2023-04-30T12:17:56.758Z,1.87
2023-04-30T12:20:25.961Z,1.50
2023-04-30T12:22:54.181Z,1.47
2023-04-30T12:25:23.468Z,1.20
2023-04-30T12:27:52.824Z,1.47
2023-04-30T12:30:21.380Z,1.50
2023-04-30T12:32:52.540Z,1.77
2023-04-30T12:35:24.407Z,1.20
2023-04-30T12:37:53.057Z,1.50
2023-04-30T12:40:21.987Z,1.37
2023-04-30T12:42:50.097Z,1.57
2023-04-30T12:45:45.455Z,1.30
2023-04-30T12:48:15.452Z,1.43
2023-04-30T12:50:43.563Z,1.83
2023-04-30T12:53:25.521Z,1.70
2023-04-30T12:56:10.006Z,1.30
2023-04-30T12:58:38.920Z,1.50
2023-04-30T13:01:07.391Z,1.70
2023-04-30T13:03:37.067Z,1.20
2023-04-30T13:06:07.001Z,1.53
2023-04-30T13:08:45.544Z,1.50
2023-04-30T13:11:18.439Z,1.40
2023-04-30T13:13:46.587Z,1.37
2023-04-30T13:16:14.854Z,1.33
2023-04-30T13:18:44.495Z,1.50
2023-04-30T13:21:12.772Z,1.50
2023-04-30T13:23:51.340Z,1.57
2023-04-30T13:26:24.644Z,1.70
2023-04-30T13:28:52.760Z,1.30
2023-04-30T13:31:20.969Z,1.50
2023-04-30T13:33:50.852Z,1.20
2023-04-30T13:36:19.022Z,1.30
2023-04-30T13:38:47.217Z,1.20
2023-04-30T13:41:15.540Z,1.50
2023-04-30T13:43:44.738Z,1.50
2023-04-30T13:46:12.976Z,1.33
2023-04-30T13:48:41.160Z,1.30
2023-04-30T13:51:10.625Z,1.40
2023-04-30T13:53:38.671Z,1.30
2023-04-30T13:56:07.273Z,1.40
2023-04-30T13:58:38.615Z,1.67
2023-04-30T14:01:06.885Z,1.30
2023-04-30T14:03:35.115Z,1.57
2023-04-30T14:06:03.304Z,1.20
2023-04-30T14:08:33.887Z,1.30
2023-04-30T14:11:02.071Z,1.17
2023-04-30T14:13:30.694Z,1.10
2023-04-30T14:15:58.782Z,1.50
2023-04-30T14:18:26.926Z,1.50
2023-04-30T14:20:55.114Z,2.70
2023-04-30T14:23:23.196Z,2.37
2023-04-30T14:25:54.093Z,1.50
2023-04-30T14:28:22.285Z,1.63
2023-04-30T14:30:50.407Z,1.77
2023-04-30T14:33:18.748Z,1.73
2023-04-30T14:35:47.689Z,1.57
2023-04-30T14:38:15.814Z,1.70
2023-04-30T14:40:44.739Z,2.00
2023-04-30T14:43:14.511Z,1.90
2023-04-30T14:45:42.742Z,1.87
2023-04-30T14:48:10.939Z,1.87
2023-04-30T14:50:39.147Z,1.93
2023-04-30T14:53:07.402Z,2.20
2023-04-30T14:55:35.495Z,2.07
2023-04-30T14:58:03.836Z,1.80
2023-04-30T15:00:33.641Z,2.10
2023-04-30T15:03:01.974Z,2.00
2023-04-30T15:05:30.393Z,1.90
2023-04-30T15:07:58.587Z,1.93
2023-04-30T15:10:27.107Z,2.30
2023-04-30T15:12:55.271Z,7.70
2023-04-30T15:15:27.945Z,6.37
2023-04-30T15:17:57.961Z,3.70
2023-04-30T15:20:26.421Z,3.50
2023-04-30T15:23:24.504Z,3.60
2023-04-30T15:25:53.202Z,4.53
2023-04-30T15:28:23.524Z,5.10
2023-04-30T15:30:52.347Z,4.90
2023-04-30T15:33:24.574Z,4.93
2023-04-30T15:35:52.734Z,4.93
2023-04-30T15:38:20.914Z,4.70
2023-04-30T15:40:49.022Z,4.03
2023-04-30T15:43:18.024Z,4.33
2023-04-30T15:45:48.323Z,3.70
2023-04-30T15:48:16.460Z,3.77
2023-04-30T15:50:45.960Z,4.30
2023-04-30T15:53:14.068Z,3.57
2023-04-30T15:55:42.619Z,3.67
2023-04-30T15:58:10.741Z,4.00
2023-04-30T16:00:38.904Z,3.67
2023-04-30T16:03:07.274Z,4.20
2023-04-30T16:05:38.832Z,3.90
2023-04-30T16:08:08.970Z,3.43
2023-04-30T16:10:37.153Z,3.80
2023-04-30T16:13:05.181Z,3.63
2023-04-30T16:15:33.298Z,3.57
2023-04-30T16:18:02.020Z,3.37
2023-04-30T16:20:30.553Z,4.10
2023-04-30T16:22:58.621Z,3.40
2023-04-30T16:25:28.670Z,3.10
2023-04-30T16:27:57.010Z,3.83
2023-04-30T16:30:25.106Z,3.97
2023-04-30T16:32:56.073Z,3.77
2023-04-30T16:35:24.153Z,3.40
2023-04-30T16:37:52.228Z,3.10
2023-04-30T16:40:20.356Z,3.30
2023-04-30T16:42:49.899Z,3.40
2023-04-30T16:45:26.238Z,3.50
2023-04-30T16:47:54.443Z,3.53
2023-04-30T16:50:24.243Z,3.00
2023-04-30T16:52:52.321Z,2.93
2023-04-30T16:55:20.658Z,3.03
2023-04-30T16:57:50.743Z,3.27
2023-04-30T17:00:19.596Z,3.07
2023-04-30T17:02:48.912Z,3.10
2023-04-30T17:05:17.291Z,2.50
2023-04-30T17:07:45.769Z,2.90
2023-04-30T17:10:14.903Z,2.90
2023-04-30T17:12:43.214Z,2.83
2023-04-30T17:15:13.026Z,2.60
2023-04-30T17:17:41.204Z,2.50
2023-04-30T17:20:10.098Z,2.67
2023-04-30T17:22:38.395Z,2.73
2023-04-30T17:25:07.005Z,2.40
2023-04-30T17:27:35.080Z,2.87
2023-04-30T17:30:04.458Z,3.00
2023-04-30T17:32:34.026Z,2.80
2023-04-30T17:35:03.220Z,2.77
2023-04-30T17:37:31.314Z,2.80
2023-04-30T17:39:59.457Z,2.60
2023-04-30T17:42:27.769Z,2.47
2023-04-30T17:44:55.900Z,2.93
2023-04-30T17:47:24.336Z,3.00
2023-04-30T17:49:54.130Z,2.70
2023-04-30T17:52:22.537Z,2.40
2023-04-30T17:54:53.104Z,2.90
2023-04-30T17:57:21.264Z,2.57
2023-04-30T17:59:49.432Z,2.50
2023-04-30T18:02:18.977Z,2.70
2023-04-30T18:04:47.217Z,2.70
2023-04-30T18:07:16.657Z,2.50
2023-04-30T18:09:44.725Z,2.90
2023-04-30T18:12:23.722Z,2.53
2023-04-30T18:15:15.689Z,2.70
2023-04-30T18:17:43.827Z,2.27
2023-04-30T18:20:13.076Z,2.90
2023-04-30T18:22:43.731Z,2.30
2023-04-30T18:25:13.145Z,3.00
2023-04-30T18:27:41.814Z,2.20
2023-04-30T18:30:10.219Z,2.30
2023-04-30T18:32:38.349Z,2.30
2023-04-30T18:35:07.148Z,2.20
2023-04-30T18:37:35.306Z,2.50
2023-04-30T18:40:05.360Z,2.50
2023-04-30T18:42:34.704Z,2.63
2023-04-30T18:45:02.792Z,2.63
2023-04-30T18:47:33.089Z,2.37
2023-04-30T18:50:01.246Z,2.20
2023-04-30T18:52:43.206Z,2.13
2023-04-30T18:55:15.508Z,2.70
2023-04-30T18:57:50.694Z,2.93
2023-04-30T19:00:18.774Z,2.43
2023-04-30T19:02:46.905Z,2.20
2023-04-30T19:05:15.755Z,2.40
2023-04-30T19:07:43.911Z,2.80
2023-04-30T19:10:12.111Z,2.43
2023-04-30T19:12:43.954Z,2.07
2023-04-30T19:15:15.007Z,2.30
2023-04-30T19:17:43.282Z,2.30
2023-04-30T19:20:12.513Z,2.30
2023-04-30T19:22:40.883Z,2.40
2023-04-30T19:25:10.223Z,2.20
2023-04-30T19:27:38.790Z,2.30
2023-04-30T19:30:09.564Z,2.37
2023-04-30T19:32:38.107Z,2.37
2023-04-30T19:35:06.988Z,2.30
2023-04-30T19:37:35.146Z,2.50
2023-04-30T19:40:04.323Z,2.20
2023-04-30T19:42:32.472Z,2.50
2023-04-30T19:45:00.632Z,2.30
2023-04-30T19:47:33.672Z,2.40
2023-04-30T19:50:02.098Z,2.13
2023-04-30T19:52:30.166Z,2.37
2023-04-30T19:54:58.565Z,1.90
2023-04-30T19:57:33.068Z,2.23
2023-04-30T20:00:01.436Z,2.30
2023-04-30T20:02:29.666Z,2.70
2023-04-30T20:04:59.251Z,2.20
2023-04-30T20:07:27.434Z,2.03
2023-04-30T20:09:55.826Z,2.07
2023-04-30T20:12:24.166Z,2.57
2023-04-30T20:14:55.482Z,2.03
2023-04-30T20:17:23.572Z,2.43
2023-04-30T20:19:51.688Z,2.50
2023-04-30T20:23:19.023Z,2.40
2023-04-30T20:25:37.783Z,2.03
2023-04-30T20:28:06.488Z,2.43
2023-04-30T20:33:18.860Z,2.07
2023-04-30T20:35:47.728Z,2.10
2023-04-30T20:38:19.858Z,2.37
2023-04-30T20:40:48.348Z,2.27
2023-04-30T20:43:17.115Z,1.93
2023-04-30T20:45:45.486Z,2.20
2023-04-30T20:48:14.125Z,2.40
2023-04-30T20:50:42.394Z,2.10
2023-04-30T20:53:11.686Z,2.20
2023-04-30T20:55:41.310Z,1.80
2023-04-30T20:58:10.261Z,2.50
2023-04-30T21:00:38.407Z,1.77
2023-04-30T21:03:09.868Z,2.50
2023-04-30T21:05:38.400Z,1.90
2023-04-30T21:08:06.629Z,1.90
2023-04-30T21:10:37.063Z,1.90
2023-04-30T21:13:08.859Z,2.10
2023-04-30T21:15:39.174Z,2.00
2023-04-30T21:18:07.354Z,2.00
2023-04-30T21:20:51.959Z,2.10
2023-04-30T21:23:20.014Z,2.00
2023-04-30T21:25:48.220Z,1.80
2023-04-30T21:28:17.689Z,1.87
2023-04-30T21:30:45.918Z,2.07
2023-04-30T21:33:14.224Z,2.30
2023-04-30T21:35:42.430Z,2.77
2023-04-30T21:38:11.701Z,2.20
2023-04-30T21:40:40.689Z,2.30
2023-04-30T21:43:09.874Z,2.47
2023-04-30T21:45:40.039Z,1.87
2023-04-30T21:48:08.977Z,2.10
2023-04-30T21:50:38.582Z,2.00
2023-04-30T21:53:06.665Z,2.23
2023-04-30T21:55:34.729Z,2.00
2023-04-30T21:58:02.918Z,1.90
2023-04-30T22:00:31.062Z,2.43
2023-04-30T22:03:00.552Z,2.13
2023-04-30T22:05:28.672Z,1.80
2023-04-30T22:07:56.778Z,2.00
2023-04-30T22:10:25.037Z,2.53
2023-04-30T22:12:53.175Z,2.23
2023-04-30T22:15:21.532Z,2.00
2023-04-30T22:17:49.742Z,1.60
2023-04-30T22:20:19.386Z,1.90
2023-04-30T22:22:47.433Z,1.80
2023-04-30T22:25:18.620Z,1.70
2023-04-30T22:27:47.338Z,2.40
2023-04-30T22:30:15.623Z,1.80
2023-04-30T22:32:43.715Z,1.90
2023-04-30T22:35:12.115Z,1.73
2023-04-30T22:37:41.526Z,2.40
2023-04-30T22:40:14.580Z,2.77
2023-04-30T22:42:56.579Z,1.90
2023-04-30T22:45:30.906Z,2.03
2023-04-30T22:48:01.388Z,1.90
2023-04-30T22:50:30.026Z,2.40
2023-04-30T22:52:59.597Z,2.13
2023-04-30T22:55:27.931Z,2.40
2023-04-30T22:57:56.514Z,2.10
2023-04-30T23:00:24.637Z,2.13
2023-04-30T23:02:52.773Z,2.23
2023-04-30T23:05:21.005Z,2.30
2023-04-30T23:07:49.620Z,2.20
2023-04-30T23:10:19.131Z,2.50
2023-04-30T23:12:47.320Z,2.63
2023-04-30T23:15:15.454Z,2.57
2023-04-30T23:17:43.605Z,3.30
2023-04-30T23:20:11.966Z,2.20
2023-04-30T23:22:40.073Z,2.70
2023-04-30T23:25:08.663Z,2.70
2023-04-30T23:27:38.160Z,2.60
2023-04-30T23:30:07.658Z,3.10
2023-04-30T23:32:35.791Z,2.63
2023-04-30T23:35:04.601Z,2.60
2023-04-30T23:37:32.792Z,2.33
2023-04-30T23:40:01.495Z,3.20
2023-04-30T23:42:29.572Z,2.70
2023-04-30T23:44:59.108Z,2.40
2023-04-30T23:47:28.382Z,2.60
2023-04-30T23:49:56.750Z,2.67
2023-04-30T23:52:25.103Z,2.60
2023-04-30T23:54:53.235Z,2.37
2023-04-30T23:57:21.607Z,2.17
2023-04-30T23:59:49.675Z,3.10
